createdAt,value
2023-04-22T00:01:24.597Z,100410.97
2023-04-22T00:03:52.290Z,100421.78
2023-04-22T00:06:19.232Z,100416.16
2023-04-22T00:08:46.140Z,100415.03
2023-04-22T00:11:13.102Z,100413.69
2023-04-22T00:13:40.174Z,100410.53
2023-04-22T00:16:07.277Z,100407.56
2023-04-22T00:18:36.488Z,100408.50
2023-04-22T00:21:04.135Z,100406.59
2023-04-22T00:23:31.637Z,100402.25
2023-04-22T00:25:58.470Z,100408.19
2023-04-22T00:28:25.225Z,100403.00
2023-04-22T00:30:52.216Z,100397.31
2023-04-22T00:33:19.084Z,100395.09
2023-04-22T00:35:49.193Z,100391.75
2023-04-22T00:38:16.494Z,100387.69
2023-04-22T00:40:43.373Z,100387.31
2023-04-22T00:43:10.460Z,100389.56
2023-04-22T00:45:37.946Z,100388.09
2023-04-22T00:48:05.588Z,100393.00
2023-04-22T00:50:32.475Z,100395.28
2023-04-22T00:53:00.166Z,100394.78
2023-04-22T00:55:27.420Z,100398.84
2023-04-22T00:57:55.379Z,100396.59
2023-04-22T01:00:27.347Z,100386.28
2023-04-22T01:02:55.369Z,100386.06
2023-04-22T01:05:24.845Z,100388.34
2023-04-22T01:07:51.772Z,100391.25
2023-04-22T01:10:19.123Z,100389.75
2023-04-22T01:12:46.155Z,100388.50
2023-04-22T01:15:13.052Z,100393.00
2023-04-22T01:17:39.896Z,100384.53
2023-04-22T01:20:10.300Z,100388.22
2023-04-22T01:22:41.641Z,100388.66
2023-04-22T01:25:12.500Z,100386.50
2023-04-22T01:27:39.706Z,100383.75
2023-04-22T01:30:07.616Z,100386.56
2023-04-22T01:32:34.940Z,100384.34
2023-04-22T01:35:02.888Z,100379.72
2023-04-22T01:37:30.486Z,100378.09
2023-04-22T01:39:59.186Z,100370.16
2023-04-22T01:42:26.283Z,100384.03
2023-04-22T01:44:53.154Z,100383.91
2023-04-22T01:47:20.134Z,100381.34
2023-04-22T01:49:47.275Z,100380.00
2023-04-22T01:52:14.689Z,100381.53
2023-04-22T01:54:41.760Z,100378.56
2023-04-22T01:57:14.074Z,100370.50
2023-04-22T01:59:41.496Z,100371.09
2023-04-22T02:02:08.760Z,100380.06
2023-04-22T02:04:35.858Z,100370.31
2023-04-22T02:07:02.711Z,100376.75
2023-04-22T02:09:29.397Z,100370.72
2023-04-22T02:11:56.303Z,100367.31
2023-04-22T02:14:23.196Z,100364.47
2023-04-22T02:16:49.958Z,100368.69
2023-04-22T02:19:16.744Z,100370.59
2023-04-22T02:21:43.610Z,100369.06
2023-04-22T02:24:10.814Z,100372.31
2023-04-22T02:26:37.738Z,100377.31
2023-04-22T02:29:04.647Z,100375.63
2023-04-22T02:31:31.917Z,100373.91
2023-04-22T02:33:58.834Z,100369.00
2023-04-22T02:36:27.878Z,100363.72
2023-04-22T02:38:55.705Z,100374.69
2023-04-22T02:41:22.779Z,100365.19
2023-04-22T02:43:49.634Z,100365.53
2023-04-22T02:46:16.664Z,100373.50
2023-04-22T02:48:43.736Z,100367.13
2023-04-22T02:51:11.369Z,100362.72
2023-04-22T02:53:38.376Z,100341.88
2023-04-22T02:56:05.791Z,100339.63
2023-04-22T02:58:32.788Z,100350.59
2023-04-22T03:00:59.615Z,100342.56
2023-04-22T03:03:27.259Z,100331.25
2023-04-22T03:05:54.048Z,100340.75
2023-04-22T03:08:21.053Z,100325.22
2023-04-22T03:10:48.163Z,100325.69
2023-04-22T03:13:15.254Z,100316.59
2023-04-22T03:15:42.233Z,100324.81
2023-04-22T03:18:09.238Z,100310.56
2023-04-22T03:20:36.687Z,100304.22
2023-04-22T03:23:03.705Z,100307.88
2023-04-22T03:25:30.539Z,100295.63
2023-04-22T03:27:58.521Z,100306.72
2023-04-22T03:30:25.530Z,100298.03
2023-04-22T03:32:54.045Z,100293.69
2023-04-22T03:35:35.626Z,100290.97
2023-04-22T03:38:02.860Z,100298.09
2023-04-22T03:40:33.041Z,100284.53
2023-04-22T03:43:04.178Z,100278.56
2023-04-22T03:45:31.781Z,100286.47
2023-04-22T03:48:18.859Z,100284.47
2023-04-22T03:50:49.170Z,100289.16
2023-04-22T03:53:16.907Z,100282.31
2023-04-22T03:55:44.451Z,100278.13
2023-04-22T03:58:14.139Z,100274.50
2023-04-22T04:00:41.067Z,100279.16
2023-04-22T04:03:14.986Z,100276.50
2023-04-22T04:05:42.882Z,100282.97
2023-04-22T04:08:09.787Z,100297.03
2023-04-22T04:10:37.178Z,100293.63
2023-04-22T04:13:04.864Z,100283.19
2023-04-22T04:15:39.643Z,100286.22
2023-04-22T04:18:08.126Z,100297.09
2023-04-22T04:20:35.159Z,100289.03
2023-04-22T04:23:02.099Z,100290.88
2023-04-22T04:25:37.632Z,100281.94
2023-04-22T04:28:10.045Z,100276.56
2023-04-22T04:30:38.278Z,100269.78
2023-04-22T04:33:07.408Z,100271.78
2023-04-22T04:35:39.730Z,100265.66
2023-04-22T04:38:08.095Z,100263.88
2023-04-22T04:40:37.183Z,100270.47
2023-04-22T04:43:24.233Z,100279.16
2023-04-22T04:45:55.980Z,100271.75
2023-04-22T04:48:36.201Z,100267.63
2023-04-22T04:51:09.345Z,100272.84
2023-04-22T04:53:42.194Z,100273.97
2023-04-22T04:56:09.936Z,100270.47
2023-04-22T04:58:41.304Z,100249.59
2023-04-22T05:01:17.241Z,100253.69
2023-04-22T05:03:45.881Z,100257.00
2023-04-22T05:06:15.290Z,100254.25
2023-04-22T05:08:47.659Z,100256.19
2023-04-22T05:11:16.814Z,100252.31
2023-04-22T05:13:46.736Z,100258.56
2023-04-22T05:16:20.034Z,100255.03
2023-04-22T05:18:46.974Z,100255.13
2023-04-22T05:21:17.146Z,100252.28
2023-04-22T05:23:45.229Z,100258.84
2023-04-22T05:26:12.766Z,100255.47
2023-04-22T05:28:42.068Z,100252.78
2023-04-22T05:31:09.198Z,100254.78
2023-04-22T05:33:37.230Z,100264.00
2023-04-22T05:36:05.754Z,100254.78
2023-04-22T05:38:32.831Z,100264.13
2023-04-22T05:41:00.775Z,100254.63
2023-04-22T05:43:28.646Z,100256.03
2023-04-22T05:46:02.501Z,100251.91
2023-04-22T05:48:29.575Z,100257.38
2023-04-22T05:50:59.885Z,100262.09
2023-04-22T05:53:29.558Z,100269.16
2023-04-22T05:55:59.573Z,100274.22
2023-04-22T05:58:26.444Z,100263.94
2023-04-22T06:00:54.848Z,100251.56
2023-04-22T06:03:41.851Z,100258.44
2023-04-22T06:06:08.995Z,100253.03
2023-04-22T06:08:35.975Z,100260.41
2023-04-22T06:11:02.832Z,100250.38
2023-04-22T06:13:33.316Z,100258.00
2023-04-22T06:16:01.433Z,100253.28
2023-04-22T06:18:28.975Z,100246.72
2023-04-22T06:20:56.199Z,100271.00
2023-04-22T06:23:23.087Z,100259.78
2023-04-22T06:25:50.031Z,100256.53
2023-04-22T06:28:17.492Z,100255.81
2023-04-22T06:30:45.635Z,100252.91
2023-04-22T06:33:13.023Z,100258.75
2023-04-22T06:35:40.125Z,100240.31
2023-04-22T06:38:07.099Z,100227.25
2023-04-22T06:40:41.814Z,100225.94
2023-04-22T06:43:15.726Z,100225.03
2023-04-22T06:46:01.360Z,100237.31
2023-04-22T06:48:46.731Z,100250.56
2023-04-22T06:51:45.797Z,100244.19
2023-04-22T06:54:13.556Z,100242.38
2023-04-22T06:56:40.287Z,100244.88
2023-04-22T06:59:07.943Z,100250.81
2023-04-22T07:01:35.507Z,100245.53
2023-04-22T07:04:02.355Z,100249.81
2023-04-22T07:06:29.234Z,100245.72
2023-04-22T07:08:56.253Z,100249.03
2023-04-22T07:11:23.086Z,100243.69
2023-04-22T07:14:00.058Z,100250.63
2023-04-22T07:16:28.181Z,100234.28
2023-04-22T07:18:55.006Z,100218.13
2023-04-22T07:21:22.152Z,100221.06
2023-04-22T07:23:48.964Z,100211.06
2023-04-22T07:26:15.936Z,100198.97
2023-04-22T07:28:42.718Z,100199.88
2023-04-22T07:31:11.141Z,100199.19
2023-04-22T07:33:38.010Z,100188.97
2023-04-22T07:36:05.319Z,100197.31
2023-04-22T07:38:32.235Z,100187.69
2023-04-22T07:40:58.971Z,100182.47
2023-04-22T07:43:25.669Z,100164.13
2023-04-22T07:45:52.695Z,100160.75
2023-04-22T07:48:19.540Z,100146.25
2023-04-22T07:50:46.415Z,100159.81
2023-04-22T07:53:15.472Z,100150.72
2023-04-22T07:55:42.490Z,100157.19
2023-04-22T07:58:09.291Z,100169.91
2023-04-22T08:00:36.259Z,100177.28
2023-04-22T08:03:03.840Z,100168.09
2023-04-22T08:05:31.051Z,100167.59
2023-04-22T08:07:57.893Z,100156.78
2023-04-22T08:10:24.740Z,100170.84
2023-04-22T08:12:52.650Z,100170.53
2023-04-22T08:15:19.610Z,100188.41
2023-04-22T08:17:46.465Z,100189.69
2023-04-22T08:20:15.561Z,100182.13
2023-04-22T08:22:45.297Z,100194.69
2023-04-22T08:25:12.820Z,100215.22
2023-04-22T08:27:39.694Z,100214.06
2023-04-22T08:30:07.568Z,100218.63
2023-04-22T08:32:34.390Z,100216.56
2023-04-22T08:35:04.672Z,100210.72
2023-04-22T08:37:32.007Z,100198.88
2023-04-22T08:39:58.984Z,100214.69
2023-04-22T08:42:27.229Z,100221.91
2023-04-22T08:44:57.278Z,100189.41
2023-04-22T08:47:25.474Z,100188.22
2023-04-22T08:49:55.808Z,100188.84
2023-04-22T08:52:22.713Z,100176.16
2023-04-22T08:54:50.041Z,100170.53
2023-04-22T08:57:17.920Z,100180.97
2023-04-22T08:59:45.284Z,100184.59
2023-04-22T09:02:18.154Z,100191.41
2023-04-22T09:04:47.491Z,100182.28
2023-04-22T09:07:43.812Z,100177.84
2023-04-22T09:10:11.943Z,100171.59
2023-04-22T09:12:39.525Z,100164.91
2023-04-22T09:15:07.813Z,100163.13
2023-04-22T09:17:38.366Z,100157.34
2023-04-22T09:20:07.909Z,100151.94
2023-04-22T09:22:43.394Z,100149.88
2023-04-22T09:25:17.513Z,100159.25
2023-04-22T09:27:49.692Z,100164.00
2023-04-22T09:30:19.200Z,100168.38
2023-04-22T09:32:53.924Z,100163.09
2023-04-22T09:35:40.674Z,100158.81
2023-04-22T09:38:09.614Z,100158.75
2023-04-22T09:40:38.043Z,100161.84
2023-04-22T09:43:08.993Z,100154.06
2023-04-22T09:45:41.653Z,100142.78
2023-04-22T09:48:11.545Z,100182.00
2023-04-22T09:50:39.872Z,100189.75
2023-04-22T09:53:11.661Z,100196.19
2023-04-22T09:55:41.677Z,100180.59
2023-04-22T09:58:17.320Z,100175.50
2023-04-22T10:00:53.107Z,100173.28
2023-04-22T10:03:20.590Z,100190.78
2023-04-22T10:05:47.658Z,100190.41
2023-04-22T10:08:16.385Z,100191.56
2023-04-22T10:10:45.994Z,100185.22
2023-04-22T10:13:13.460Z,100180.56
2023-04-22T10:15:44.665Z,100193.91
2023-04-22T10:18:14.092Z,100193.03
2023-04-22T10:20:42.347Z,100195.50
2023-04-22T10:23:14.272Z,100181.72
2023-04-22T10:25:41.164Z,100180.78
2023-04-22T10:28:11.113Z,100186.66
2023-04-22T10:30:39.602Z,100169.88
2023-04-22T10:33:21.848Z,100187.91
2023-04-22T10:36:10.748Z,100184.69
2023-04-22T10:38:39.388Z,100178.66
2023-04-22T10:41:06.414Z,100176.88
2023-04-22T10:43:46.493Z,100180.22
2023-04-22T10:46:35.652Z,100174.59
2023-04-22T10:49:12.857Z,100175.56
2023-04-22T10:51:42.999Z,100172.50
2023-04-22T10:54:36.540Z,100173.25
2023-04-22T10:57:04.089Z,100170.88
2023-04-22T10:59:32.635Z,100173.50
2023-04-22T11:02:06.886Z,100182.75
2023-04-22T11:04:34.727Z,100167.59
2023-04-22T11:07:26.605Z,100181.63
2023-04-22T11:10:05.560Z,100175.72
2023-04-22T11:12:35.526Z,100185.53
2023-04-22T11:15:06.493Z,100197.00
2023-04-22T11:17:34.903Z,100188.88
2023-04-22T11:20:02.455Z,100176.16
2023-04-22T11:22:38.073Z,100178.94
2023-04-22T11:25:06.652Z,100178.34
2023-04-22T11:27:33.952Z,100180.03
2023-04-22T11:30:05.299Z,100189.13
2023-04-22T11:32:32.585Z,100191.00
2023-04-22T11:35:03.863Z,100182.94
2023-04-22T11:37:31.312Z,100191.78
2023-04-22T11:40:21.351Z,100197.47
2023-04-22T11:42:49.757Z,100192.25
2023-04-22T11:45:17.422Z,100190.91
2023-04-22T11:47:46.686Z,100189.69
2023-04-22T11:50:14.716Z,100189.13
2023-04-22T11:52:46.393Z,100179.19
2023-04-22T11:55:14.624Z,100182.13
2023-04-22T11:57:42.598Z,100191.50
2023-04-22T12:00:12.937Z,100187.31
2023-04-22T12:02:41.596Z,100189.50
2023-04-22T12:05:12.665Z,100187.59
2023-04-22T12:07:40.020Z,100199.34
2023-04-22T12:10:08.028Z,100197.06
2023-04-22T12:12:37.336Z,100200.06
2023-04-22T12:15:13.671Z,100200.47
2023-04-22T12:17:41.664Z,100201.72
2023-04-22T12:20:24.157Z,100199.91
2023-04-22T12:22:53.409Z,100205.75
2023-04-22T12:25:21.192Z,100217.22
2023-04-22T12:27:48.567Z,100214.72
2023-04-22T12:30:15.951Z,100211.81
2023-04-22T12:32:42.999Z,100209.41
2023-04-22T12:35:10.087Z,100208.69
2023-04-22T12:37:37.477Z,100213.19
2023-04-22T12:40:08.315Z,100203.78
2023-04-22T12:42:35.715Z,100208.19
2023-04-22T12:45:03.203Z,100207.66
2023-04-22T12:47:30.383Z,100207.75
2023-04-22T12:49:59.272Z,100202.22
2023-04-22T12:52:26.377Z,100212.94
2023-04-22T12:54:54.725Z,100204.50
2023-04-22T12:57:21.587Z,100206.53
2023-04-22T12:59:48.628Z,100205.00
2023-04-22T13:02:15.614Z,100209.91
2023-04-22T13:04:42.633Z,100216.03
2023-04-22T13:07:09.472Z,100207.94
2023-04-22T13:09:36.124Z,100211.72
2023-04-22T13:12:03.812Z,100211.03
2023-04-22T13:14:30.783Z,100208.03
2023-04-22T13:16:57.647Z,100201.66
2023-04-22T13:19:25.803Z,100200.53
2023-04-22T13:21:52.985Z,100217.75
2023-04-22T13:24:19.933Z,100201.94
2023-04-22T13:26:46.933Z,100189.13
2023-04-22T13:29:14.268Z,100199.13
2023-04-22T13:31:49.310Z,100206.97
2023-04-22T13:34:16.449Z,100198.28
2023-04-22T13:36:43.362Z,100202.19
2023-04-22T13:39:10.072Z,100197.75
2023-04-22T13:41:37.641Z,100195.28
2023-04-22T13:44:04.772Z,100187.00
2023-04-22T13:46:32.002Z,100189.81
2023-04-22T13:48:58.836Z,100192.91
2023-04-22T13:51:25.899Z,100185.22
2023-04-22T13:53:52.766Z,100178.88
2023-04-22T13:56:19.766Z,100190.34
2023-04-22T13:58:46.729Z,100175.50
2023-04-22T14:01:13.586Z,100187.00
2023-04-22T14:03:41.198Z,100187.47
2023-04-22T14:06:08.156Z,100180.63
2023-04-22T14:08:35.295Z,100165.44
2023-04-22T14:11:03.483Z,100184.06
2023-04-22T14:13:34.258Z,100184.63
2023-04-22T14:16:02.651Z,100186.47
2023-04-22T14:18:29.701Z,100185.06
2023-04-22T14:20:56.976Z,100186.00
2023-04-22T14:23:23.690Z,100185.22
2023-04-22T14:25:53.655Z,100177.88
2023-04-22T14:28:20.571Z,100174.88
2023-04-22T14:30:47.521Z,100183.34
2023-04-22T14:33:14.280Z,100194.84
2023-04-22T14:35:41.091Z,100190.75
2023-04-22T14:38:09.537Z,100188.41
2023-04-22T14:40:36.536Z,100189.25
2023-04-22T14:43:05.356Z,100197.91
2023-04-22T14:45:33.651Z,100211.63
2023-04-22T14:48:00.903Z,100212.34
2023-04-22T14:50:28.279Z,100229.97
2023-04-22T14:52:55.222Z,100234.00
2023-04-22T14:55:23.790Z,100229.19
2023-04-22T14:57:53.465Z,100223.97
2023-04-22T15:00:20.434Z,100238.19
2023-04-22T15:02:47.235Z,100242.00
2023-04-22T15:05:14.290Z,100250.88
2023-04-22T15:07:40.993Z,100267.44
2023-04-22T15:10:08.323Z,100260.41
2023-04-22T15:12:35.104Z,100275.31
2023-04-22T15:15:02.361Z,100265.22
2023-04-22T15:17:30.854Z,100269.94
2023-04-22T15:19:57.971Z,100287.00
2023-04-22T15:22:25.462Z,100287.78
2023-04-22T15:24:52.188Z,100291.38
2023-04-22T15:27:19.286Z,100297.28
2023-04-22T15:29:46.581Z,100301.09
2023-04-22T15:32:13.425Z,100299.66
2023-04-22T15:34:40.357Z,100305.25
2023-04-22T15:37:07.307Z,100298.22
2023-04-22T15:39:34.042Z,100299.84
2023-04-22T15:42:01.639Z,100294.09
2023-04-22T15:44:30.105Z,100304.94
2023-04-22T15:46:58.429Z,100312.28
2023-04-22T15:49:26.008Z,100321.19
2023-04-22T15:51:53.585Z,100317.72
2023-04-22T15:54:20.567Z,100315.00
2023-04-22T15:56:47.245Z,100316.94
2023-04-22T15:59:14.075Z,100326.28
2023-04-22T16:01:40.992Z,100320.25
2023-04-22T16:04:08.268Z,100320.72
2023-04-22T16:06:36.570Z,100317.03
2023-04-22T16:09:03.990Z,100327.75
2023-04-22T16:11:30.793Z,100324.56
2023-04-22T16:13:57.817Z,100327.84
2023-04-22T16:16:26.321Z,100336.34
2023-04-22T16:18:53.441Z,100349.13
2023-04-22T16:21:20.187Z,100346.38
2023-04-22T16:23:48.631Z,100349.34
2023-04-22T16:26:15.748Z,100350.00
2023-04-22T16:28:42.666Z,100357.16
2023-04-22T16:31:11.389Z,100352.28
2023-04-22T16:33:38.594Z,100349.66
2023-04-22T16:36:05.621Z,100360.53
2023-04-22T16:38:32.380Z,100359.09
2023-04-22T16:40:59.686Z,100354.94
2023-04-22T16:43:26.368Z,100360.47
2023-04-22T16:45:53.400Z,100352.59
2023-04-22T16:48:20.391Z,100352.34
2023-04-22T16:50:47.254Z,100353.38
2023-04-22T16:53:13.951Z,100353.22
2023-04-22T16:55:41.563Z,100365.94
2023-04-22T16:58:08.496Z,100363.19
2023-04-22T17:00:35.548Z,100367.34
2023-04-22T17:03:02.628Z,100376.00
2023-04-22T17:05:29.814Z,100376.53
2023-04-22T17:07:57.150Z,100374.41
2023-04-22T17:10:23.979Z,100377.63
2023-04-22T17:12:53.075Z,100373.97
2023-04-22T17:15:19.911Z,100382.16
2023-04-22T17:17:46.920Z,100390.69
2023-04-22T17:20:13.801Z,100394.75
2023-04-22T17:22:40.671Z,100385.34
2023-04-22T17:25:07.930Z,100389.97
2023-04-22T17:27:35.332Z,100391.88
2023-04-22T17:30:02.086Z,100391.69
2023-04-22T17:32:28.887Z,100393.50
2023-04-22T17:34:55.874Z,100402.94
2023-04-22T17:37:22.720Z,100404.88
2023-04-22T17:39:49.617Z,100410.59
2023-04-22T17:42:17.822Z,100410.53
2023-04-22T17:44:44.656Z,100408.50
2023-04-22T17:47:11.634Z,100406.22
2023-04-22T17:49:38.851Z,100404.41
2023-04-22T17:52:05.981Z,100402.97
2023-04-22T17:54:32.892Z,100411.03
2023-04-22T17:57:11.955Z,100412.28
2023-04-22T17:59:38.979Z,100415.47
2023-04-22T18:02:07.576Z,100409.19
2023-04-22T18:04:34.682Z,100405.56
2023-04-22T18:07:01.809Z,100417.34
2023-04-22T18:09:28.687Z,100416.03
2023-04-22T18:11:58.682Z,100412.75
2023-04-22T18:14:27.003Z,100410.19
2023-04-22T18:16:54.171Z,100402.75
2023-04-22T18:19:22.058Z,100408.81
2023-04-22T18:21:59.544Z,100411.34
2023-04-22T18:24:27.850Z,100413.91
2023-04-22T18:26:54.799Z,100432.34
2023-04-22T18:29:21.833Z,100430.03
2023-04-22T18:31:48.682Z,100430.25
2023-04-22T18:34:16.006Z,100432.25
2023-04-22T18:36:42.831Z,100429.66
2023-04-22T18:39:10.121Z,100432.28
2023-04-22T18:41:38.657Z,100435.31
2023-04-22T18:44:06.165Z,100434.44
2023-04-22T18:46:32.996Z,100446.00
2023-04-22T18:48:59.819Z,100438.00
2023-04-22T18:51:27.710Z,100450.09
2023-04-22T18:53:54.912Z,100449.50
2023-04-22T18:56:21.888Z,100454.16
2023-04-22T18:58:50.091Z,100456.34
2023-04-22T19:01:17.676Z,100457.03
2023-04-22T19:03:45.783Z,100457.50
2023-04-22T19:06:15.192Z,100459.78
2023-04-22T19:08:42.280Z,100466.09
2023-04-22T19:11:09.140Z,100471.91
2023-04-22T19:13:35.959Z,100463.25
2023-04-22T19:16:02.883Z,100466.53
2023-04-22T19:18:29.792Z,100460.13
2023-04-22T19:20:56.622Z,100464.53
2023-04-22T19:23:23.512Z,100459.28
2023-04-22T19:25:50.516Z,100450.81
2023-04-22T19:28:17.624Z,100444.97
2023-04-22T19:30:44.741Z,100446.00
2023-04-22T19:33:12.117Z,100438.88
2023-04-22T19:35:39.116Z,100455.47
2023-04-22T19:38:06.004Z,100453.72
2023-04-22T19:40:32.808Z,100450.47
2023-04-22T19:42:59.835Z,100452.06
2023-04-22T19:45:27.219Z,100459.38
2023-04-22T19:47:54.299Z,100461.09
2023-04-22T19:50:21.308Z,100469.88
2023-04-22T19:52:50.186Z,100477.53
2023-04-22T19:55:17.943Z,100472.72
2023-04-22T19:57:44.745Z,100466.16
2023-04-22T20:00:12.130Z,100468.38
2023-04-22T20:02:42.504Z,100465.28
2023-04-22T20:05:10.265Z,100462.09
2023-04-22T20:07:38.161Z,100464.59
2023-04-22T20:10:06.861Z,100485.00
2023-04-22T20:12:33.968Z,100473.63
2023-04-22T20:15:02.633Z,100474.97
2023-04-22T20:17:31.182Z,100476.75
2023-04-22T20:19:58.538Z,100479.16
2023-04-22T20:22:25.480Z,100474.94
2023-04-22T20:25:03.771Z,100461.31
2023-04-22T20:27:34.492Z,100480.06
2023-04-22T20:30:01.772Z,100474.31
2023-04-22T20:32:29.005Z,100484.75
2023-04-22T20:34:56.904Z,100470.25
2023-04-22T20:37:24.992Z,100464.56
2023-04-22T20:39:53.188Z,100464.69
2023-04-22T20:42:21.949Z,100475.19
2023-04-22T20:44:48.708Z,100467.63
2023-04-22T20:47:17.116Z,100457.88
2023-04-22T20:49:44.054Z,100452.16
2023-04-22T20:52:12.056Z,100445.50
2023-04-22T20:54:40.014Z,100449.84
2023-04-22T20:57:07.502Z,100445.59
2023-04-22T20:59:36.862Z,100441.94
2023-04-22T21:02:07.200Z,100445.59
2023-04-22T21:04:34.749Z,100441.28
2023-04-22T21:07:07.225Z,100435.34
2023-04-22T21:09:34.647Z,100441.94
2023-04-22T21:12:02.571Z,100442.09
2023-04-22T21:14:29.896Z,100427.59
2023-04-22T21:17:15.369Z,100427.56
2023-04-22T21:19:50.296Z,100427.53
2023-04-22T21:22:27.832Z,100421.13
2023-04-22T21:24:55.184Z,100424.34
2023-04-22T21:27:22.584Z,100422.88
2023-04-22T21:29:50.323Z,100422.09
2023-04-22T21:32:17.887Z,100423.03
2023-04-22T21:34:47.757Z,100425.31
2023-04-22T21:37:14.648Z,100426.69
2023-04-22T21:39:41.812Z,100423.09
2023-04-22T21:42:09.081Z,100427.88
2023-04-22T21:44:45.909Z,100429.75
2023-04-22T21:47:14.013Z,100425.31
2023-04-22T21:49:41.118Z,100419.34
2023-04-22T21:52:07.991Z,100437.66
2023-04-22T21:54:52.785Z,100431.53
2023-04-22T21:57:20.246Z,100434.91
2023-04-22T21:59:49.666Z,100440.53
2023-04-22T22:02:21.168Z,100440.53
2023-04-22T22:04:49.974Z,100434.13
2023-04-22T22:07:26.663Z,100445.66
2023-04-22T22:09:57.683Z,100448.84
2023-04-22T22:12:26.038Z,100445.00
2023-04-22T22:14:53.787Z,100441.34
2023-04-22T22:17:28.068Z,100439.03
2023-04-22T22:19:56.254Z,100434.94
2023-04-22T22:22:23.599Z,100432.94
2023-04-22T22:24:52.835Z,100434.72
2023-04-22T22:27:26.884Z,100433.16
2023-04-22T22:29:58.007Z,100424.31
2023-04-22T22:32:25.274Z,100429.03
2023-04-22T22:34:52.177Z,100427.09
2023-04-22T22:37:19.050Z,100418.03
2023-04-22T22:39:45.882Z,100418.00
2023-04-22T22:42:12.776Z,100416.25
2023-04-22T22:44:42.042Z,100419.13
2023-04-22T22:47:11.055Z,100420.81
2023-04-22T22:49:38.319Z,100427.44
2023-04-22T22:52:05.171Z,100423.81
2023-04-22T22:54:33.976Z,100420.31
2023-04-22T22:57:01.682Z,100414.38
2023-04-22T22:59:28.837Z,100413.91
2023-04-22T23:01:56.317Z,100414.72
2023-04-22T23:04:24.230Z,100410.00
2023-04-22T23:06:51.289Z,100404.31
2023-04-22T23:09:19.205Z,100406.47
2023-04-22T23:11:48.363Z,100408.28
2023-04-22T23:14:19.551Z,100403.53
2023-04-22T23:16:47.262Z,100400.94
2023-04-22T23:19:18.267Z,100400.88
2023-04-22T23:21:46.048Z,100394.97
2023-04-22T23:24:15.958Z,100395.41
2023-04-22T23:26:43.322Z,100401.34
2023-04-22T23:29:10.541Z,100391.41
2023-04-22T23:31:40.303Z,100394.19
2023-04-22T23:34:09.601Z,100392.97
2023-04-22T23:36:37.479Z,100384.09
2023-04-22T23:39:08.507Z,100383.47
2023-04-22T23:41:36.743Z,100383.75
2023-04-22T23:44:03.580Z,100382.72
2023-04-22T23:46:31.596Z,100362.97
2023-04-22T23:49:00.261Z,100373.00
2023-04-22T23:51:28.374Z,100363.94
2023-04-22T23:53:55.300Z,100371.28
2023-04-22T23:56:24.701Z,100371.88
2023-04-22T23:58:55.149Z,100362.59
